createdAt,value
2022-11-24T00:00:10.081Z,100371.97
2022-11-24T00:02:36.583Z,100369.78
2022-11-24T00:05:03.117Z,100365.47
2022-11-24T00:07:29.586Z,100362.56
2022-11-24T00:09:56.020Z,100361.34
2022-11-24T00:12:22.366Z,100361.09
2022-11-24T00:14:48.757Z,100375.34
2022-11-24T00:17:15.124Z,100386.44
2022-11-24T00:19:41.953Z,100399.81
2022-11-24T00:22:08.389Z,100397.84
2022-11-24T00:24:35.069Z,100397.00
2022-11-24T00:27:01.538Z,100390.94
2022-11-24T00:29:28.200Z,100398.63
2022-11-24T00:31:56.595Z,100391.44
2022-11-24T00:34:23.231Z,100396.69
2022-11-24T00:36:49.583Z,100388.13
2022-11-24T00:39:16.362Z,100400.78
2022-11-24T00:41:43.179Z,100394.44
2022-11-24T00:44:09.678Z,100393.94
2022-11-24T00:46:36.357Z,100396.19
2022-11-24T00:49:03.211Z,100401.09
2022-11-24T00:51:30.325Z,100399.97
2022-11-24T00:53:57.867Z,100397.69
2022-11-24T00:56:25.762Z,100405.38
2022-11-24T00:58:52.920Z,100409.94
2022-11-24T01:01:21.852Z,100412.78
2022-11-24T01:03:48.813Z,100422.47
2022-11-24T01:06:19.006Z,100428.81
2022-11-24T01:08:46.263Z,100432.97
2022-11-24T01:11:17.252Z,100421.63
2022-11-24T01:13:47.033Z,100418.03
2022-11-24T01:16:18.905Z,100423.31
2022-11-24T01:18:45.533Z,100432.16
2022-11-24T01:21:12.450Z,100426.22
2022-11-24T01:23:38.937Z,100444.59
2022-11-24T01:26:07.404Z,100445.88
2022-11-24T01:28:33.954Z,100440.50
2022-11-24T01:31:02.374Z,100442.06
2022-11-24T01:33:29.026Z,100437.19
2022-11-24T01:35:57.604Z,100434.06
2022-11-24T01:38:25.435Z,100442.91
2022-11-24T01:41:11.895Z,100441.94
2022-11-24T01:43:38.637Z,100445.13
2022-11-24T01:46:16.190Z,100440.03
2022-11-24T01:48:52.124Z,100444.44
2022-11-24T01:51:25.560Z,100454.09
2022-11-24T01:54:03.157Z,100454.38
2022-11-24T01:56:31.368Z,100446.69
2022-11-24T01:59:00.773Z,100452.28
2022-11-24T02:01:29.092Z,100447.38
2022-11-24T02:03:56.335Z,100463.59
2022-11-24T02:06:27.941Z,100460.47
2022-11-24T02:08:58.706Z,100459.38
2022-11-24T02:11:28.733Z,100458.53
2022-11-24T02:13:56.935Z,100450.53
2022-11-24T02:16:23.617Z,100469.22
2022-11-24T02:18:50.082Z,100463.63
2022-11-24T02:21:16.921Z,100466.81
2022-11-24T02:23:55.957Z,100468.94
2022-11-24T02:26:45.162Z,100466.06
2022-11-24T02:29:13.777Z,100466.00
2022-11-24T02:31:45.494Z,100471.31
2022-11-24T02:34:11.855Z,100479.66
2022-11-24T02:36:38.231Z,100470.22
2022-11-24T02:39:10.429Z,100472.44
2022-11-24T02:41:37.695Z,100476.56
2022-11-24T02:44:04.230Z,100493.69
2022-11-24T02:46:30.697Z,100481.56
2022-11-24T02:48:57.217Z,100487.97
2022-11-24T02:51:23.679Z,100487.41
2022-11-24T02:53:50.071Z,100492.34
2022-11-24T02:56:16.450Z,100487.91
2022-11-24T02:58:42.812Z,100487.09
2022-11-24T03:01:09.247Z,100486.50
2022-11-24T03:03:35.793Z,100492.22
2022-11-24T03:06:02.146Z,100493.16
2022-11-24T03:08:28.525Z,100485.75
2022-11-24T03:10:54.982Z,100484.91
2022-11-24T03:13:21.419Z,100480.22
2022-11-24T03:15:47.904Z,100475.69
2022-11-24T03:18:14.293Z,100484.78
2022-11-24T03:20:40.663Z,100489.97
2022-11-24T03:23:07.091Z,100495.41
2022-11-24T03:25:33.482Z,100493.16
2022-11-24T03:27:59.835Z,100497.47
2022-11-24T03:30:26.261Z,100495.56
2022-11-24T03:32:53.637Z,100491.38
2022-11-24T03:35:21.682Z,100496.09
2022-11-24T03:37:48.948Z,100496.63
2022-11-24T03:40:15.862Z,100499.13
2022-11-24T03:42:42.270Z,100503.22
2022-11-24T03:45:38.040Z,100499.25
2022-11-24T03:47:55.471Z,100505.78
2022-11-24T03:50:21.831Z,100501.88
2022-11-24T03:52:48.221Z,100505.47
2022-11-24T03:55:14.665Z,100508.38
2022-11-24T03:57:41.098Z,100513.50
2022-11-24T04:00:08.487Z,100519.81
2022-11-24T04:02:34.887Z,100517.66
2022-11-24T04:05:01.246Z,100512.66
2022-11-24T04:07:27.756Z,100519.59
2022-11-24T04:09:54.130Z,100519.81
2022-11-24T04:12:38.769Z,100532.84
2022-11-24T04:15:05.599Z,100522.22
2022-11-24T04:17:31.999Z,100540.59
2022-11-24T04:19:58.339Z,100536.31
2022-11-24T04:22:24.691Z,100537.28
2022-11-24T04:24:51.044Z,100542.78
2022-11-24T04:27:17.881Z,100545.53
2022-11-24T04:29:44.211Z,100553.16
2022-11-24T04:32:10.626Z,100555.53
2022-11-24T04:34:37.161Z,100549.00
2022-11-24T04:37:03.509Z,100553.09
2022-11-24T04:39:29.861Z,100553.78
2022-11-24T04:41:57.142Z,100567.19
2022-11-24T04:44:23.545Z,100562.91
2022-11-24T04:46:49.911Z,100577.69
2022-11-24T04:49:16.427Z,100578.41
2022-11-24T04:51:42.817Z,100568.72
2022-11-24T04:54:11.553Z,100586.88
2022-11-24T04:56:38.744Z,100602.19
2022-11-24T04:59:08.434Z,100604.94
2022-11-24T05:01:35.705Z,100601.34
2022-11-24T05:04:02.117Z,100606.00
2022-11-24T05:06:28.620Z,100607.94
2022-11-24T05:08:54.953Z,100614.03
2022-11-24T05:11:21.305Z,100617.59
2022-11-24T05:13:47.626Z,100624.25
2022-11-24T05:16:14.074Z,100621.53
2022-11-24T05:18:40.598Z,100631.22
2022-11-24T05:21:06.998Z,100632.66
2022-11-24T05:23:33.357Z,100641.88
2022-11-24T05:26:01.465Z,100643.66
2022-11-24T05:28:28.642Z,100652.63
2022-11-24T05:30:58.860Z,100656.56
2022-11-24T05:33:26.404Z,100649.91
2022-11-24T05:35:52.834Z,100661.38
2022-11-24T05:38:19.233Z,100663.53
2022-11-24T05:40:45.701Z,100665.66
2022-11-24T05:43:16.710Z,100679.75
2022-11-24T05:45:44.096Z,100667.09
2022-11-24T05:48:13.620Z,100685.75
2022-11-24T05:50:40.053Z,100687.06
2022-11-24T05:53:09.235Z,100698.03
2022-11-24T05:55:36.281Z,100696.59
2022-11-24T05:58:05.750Z,100701.84
2022-11-24T06:00:33.070Z,100711.50
2022-11-24T06:03:00.011Z,100713.41
2022-11-24T06:05:27.856Z,100727.50
2022-11-24T06:07:54.851Z,100723.66
2022-11-24T06:10:23.803Z,100736.91
2022-11-24T06:12:50.626Z,100740.50
2022-11-24T06:15:17.448Z,100746.56
2022-11-24T06:17:43.827Z,100749.41
2022-11-24T06:20:11.658Z,100753.75
2022-11-24T06:22:38.070Z,100755.63
2022-11-24T06:25:04.798Z,100759.22
2022-11-24T06:27:31.193Z,100769.72
2022-11-24T06:29:57.717Z,100766.97
2022-11-24T06:32:24.268Z,100779.25
2022-11-24T06:34:50.589Z,100790.50
2022-11-24T06:37:16.923Z,100785.25
2022-11-24T06:39:43.296Z,100786.41
2022-11-24T06:42:09.681Z,100807.41
2022-11-24T06:44:36.397Z,100796.19
2022-11-24T06:47:02.985Z,100808.25
2022-11-24T06:49:29.351Z,100810.03
2022-11-24T06:51:55.906Z,100820.66
2022-11-24T06:54:22.302Z,100830.31
2022-11-24T06:56:48.697Z,100823.72
2022-11-24T06:59:20.134Z,100821.81
2022-11-24T07:01:47.077Z,100836.97
2022-11-24T07:04:14.768Z,100841.72
2022-11-24T07:06:41.454Z,100849.81
2022-11-24T07:09:12.830Z,100849.47
2022-11-24T07:11:40.231Z,100858.31
2022-11-24T07:14:07.024Z,100857.47
2022-11-24T07:16:33.867Z,100866.75
2022-11-24T07:19:01.039Z,100868.47
2022-11-24T07:21:28.454Z,100870.13
2022-11-24T07:23:56.706Z,100881.69
2022-11-24T07:26:23.375Z,100889.47
2022-11-24T07:28:50.683Z,100887.66
2022-11-24T07:31:20.038Z,100886.72
2022-11-24T07:33:51.140Z,100883.97
2022-11-24T07:36:17.732Z,100880.63
2022-11-24T07:38:44.226Z,100887.03
2022-11-24T07:41:12.928Z,100907.19
2022-11-24T07:43:39.552Z,100907.09
2022-11-24T07:46:08.606Z,100920.72
2022-11-24T07:48:35.240Z,100918.81
2022-11-24T07:51:02.991Z,100925.75
2022-11-24T07:53:29.306Z,100922.16
2022-11-24T07:55:58.077Z,100936.97
2022-11-24T07:58:28.874Z,100941.50
2022-11-24T08:00:58.762Z,100944.00
2022-11-24T08:03:25.380Z,100952.59
2022-11-24T08:08:46.464Z,100969.56
2022-11-24T08:11:15.422Z,100966.81
2022-11-24T08:13:41.954Z,100969.34
2022-11-24T08:16:10.543Z,100976.88
2022-11-24T08:18:37.863Z,100976.66
2022-11-24T08:21:05.339Z,100978.00
2022-11-24T08:23:32.093Z,100984.56
2022-11-24T08:26:04.407Z,100977.19
2022-11-24T08:28:31.567Z,100974.34
2022-11-24T08:31:12.760Z,100973.28
2022-11-24T08:33:39.957Z,100985.56
2022-11-24T08:36:11.818Z,100983.19
2022-11-24T08:38:38.714Z,100991.66
2022-11-24T08:41:08.285Z,100993.38
2022-11-24T08:43:35.020Z,100997.59
2022-11-24T08:46:04.007Z,101002.59
2022-11-24T08:48:30.554Z,101000.47
2022-11-24T08:50:58.223Z,100995.22
2022-11-24T08:53:25.166Z,101001.44
2022-11-24T08:55:51.774Z,101009.56
2022-11-24T08:58:18.119Z,101013.13
2022-11-24T09:00:44.463Z,101019.56
2022-11-24T09:03:11.801Z,101021.00
2022-11-24T09:05:53.943Z,101025.03
2022-11-24T09:08:20.703Z,101028.59
2022-11-24T09:10:47.208Z,101031.75
2022-11-24T09:13:13.587Z,101027.41
2022-11-24T09:15:39.978Z,101035.44
2022-11-24T09:18:06.408Z,101041.88
2022-11-24T09:20:32.716Z,101047.63
2022-11-24T09:22:59.029Z,101042.97
2022-11-24T09:25:25.345Z,101041.09
2022-11-24T09:27:51.711Z,101044.22
2022-11-24T09:30:18.163Z,101044.44
2022-11-24T09:32:44.488Z,101052.81
2022-11-24T09:35:10.807Z,101049.59
2022-11-24T09:37:37.201Z,101053.63
2022-11-24T09:40:03.887Z,101057.00
2022-11-24T09:42:40.954Z,101057.00
2022-11-24T09:45:41.547Z,101056.78
2022-11-24T09:48:21.236Z,101059.22
2022-11-24T09:50:49.589Z,101076.06
2022-11-24T09:53:31.238Z,101077.19
2022-11-24T09:56:09.650Z,101074.06
2022-11-24T09:58:45.133Z,101077.56
2022-11-24T10:01:25.422Z,101080.28
2022-11-24T10:03:53.274Z,101080.09
2022-11-24T10:06:27.717Z,101095.75
2022-11-24T10:09:30.081Z,101092.03
2022-11-24T10:12:08.804Z,101091.88
2022-11-24T10:14:37.912Z,101097.72
2022-11-24T10:17:22.945Z,101100.00
2022-11-24T10:20:17.331Z,101103.63
2022-11-24T10:23:26.055Z,101108.03
2022-11-24T10:25:59.346Z,101119.97
2022-11-24T10:28:35.876Z,101133.22
2022-11-24T10:31:21.987Z,101133.72
2022-11-24T10:33:49.308Z,101136.91
2022-11-24T10:36:39.964Z,101144.38
2022-11-24T10:39:23.556Z,101144.38
2022-11-24T10:42:00.593Z,101137.72
2022-11-24T10:44:26.974Z,101131.25
2022-11-24T10:46:53.474Z,101134.81
2022-11-24T10:49:25.299Z,101139.47
2022-11-24T10:52:07.028Z,101153.53
2022-11-24T10:54:35.867Z,101152.28
2022-11-24T10:57:02.688Z,101145.16
2022-11-24T10:59:37.989Z,101152.91
2022-11-24T11:02:26.535Z,101148.66
2022-11-24T11:04:53.006Z,101152.44
2022-11-24T11:07:22.769Z,101154.28
2022-11-24T11:09:49.676Z,101161.97
2022-11-24T11:12:43.452Z,101166.28
2022-11-24T11:15:30.995Z,101178.75
2022-11-24T11:18:00.090Z,101171.91
2022-11-24T11:20:32.383Z,101161.50
2022-11-24T11:23:03.556Z,101157.59
2022-11-24T11:25:34.014Z,101157.13
2022-11-24T11:28:29.466Z,101149.34
2022-11-24T11:31:16.722Z,101153.16
2022-11-24T11:34:15.966Z,101147.50
2022-11-24T11:36:51.057Z,101153.28
2022-11-24T11:39:20.494Z,101155.47
2022-11-24T11:41:49.698Z,101151.53
2022-11-24T11:44:38.527Z,101147.41
2022-11-24T11:47:23.439Z,101138.44
2022-11-24T11:49:50.293Z,101148.44
2022-11-24T11:53:13.997Z,101157.88
2022-11-24T11:55:55.105Z,101146.94
2022-11-24T11:58:48.822Z,101159.34
2022-11-24T12:01:42.766Z,101154.38
2022-11-24T12:04:47.746Z,101155.59
2022-11-24T12:07:27.477Z,101154.94
2022-11-24T12:10:21.878Z,101168.50
2022-11-24T12:13:00.365Z,101158.00
2022-11-24T12:15:48.095Z,101164.31
2022-11-24T12:18:56.452Z,101150.72
2022-11-24T12:21:53.204Z,101151.38
2022-11-24T12:24:49.987Z,101153.41
2022-11-24T12:27:23.385Z,101163.41
2022-11-24T12:30:11.956Z,101167.16
2022-11-24T12:32:53.887Z,101163.16
2022-11-24T12:35:28.798Z,101163.16
2022-11-24T12:38:24.463Z,101160.97
2022-11-24T12:41:33.804Z,101161.81
2022-11-24T12:43:58.049Z,101163.31
2022-11-24T12:46:44.926Z,101166.00
2022-11-24T12:49:20.113Z,101172.34
2022-11-24T12:51:51.174Z,101179.78
2022-11-24T12:54:20.977Z,101181.66
2022-11-24T12:57:07.334Z,101190.66
2022-11-24T12:59:43.680Z,101185.00
2022-11-24T13:02:25.115Z,101185.31
2022-11-24T13:05:00.997Z,101188.00
2022-11-24T13:07:39.923Z,101176.03
2022-11-24T13:10:54.105Z,101181.06
2022-11-24T13:13:15.196Z,101182.47
2022-11-24T13:18:44.968Z,101192.28
2022-11-24T13:21:50.332Z,101182.25
2022-11-24T13:24:16.837Z,101183.75
2022-11-24T13:26:45.434Z,101185.28
2022-11-24T13:29:33.157Z,101189.38
2022-11-24T13:32:02.325Z,101184.38
2022-11-24T13:34:40.889Z,101191.28
2022-11-24T13:37:26.526Z,101185.69
2022-11-24T13:40:03.642Z,101176.63
2022-11-24T13:42:42.627Z,101177.06
2022-11-24T13:45:39.253Z,101177.88
2022-11-24T13:48:34.798Z,101182.72
2022-11-24T13:51:01.468Z,101180.31
2022-11-24T13:53:41.098Z,101186.25
2022-11-24T13:56:13.175Z,101188.34
2022-11-24T13:58:41.933Z,101186.91
2022-11-24T14:01:31.183Z,101175.91
2022-11-24T14:04:29.984Z,101188.69
2022-11-24T14:06:53.705Z,101179.47
2022-11-24T14:09:23.466Z,101182.63
2022-11-24T14:12:20.151Z,101171.47
2022-11-24T14:14:48.700Z,101177.88
2022-11-24T14:17:24.317Z,101182.56
2022-11-24T14:19:53.422Z,101177.78
2022-11-24T14:22:23.215Z,101172.78
2022-11-24T14:24:58.684Z,101176.63
2022-11-24T14:27:29.960Z,101176.06
2022-11-24T14:30:02.056Z,101168.78
2022-11-24T14:32:28.720Z,101163.84
2022-11-24T14:34:55.547Z,101161.13
2022-11-24T14:37:22.320Z,101168.84
2022-11-24T14:39:49.135Z,101162.16
2022-11-24T14:42:24.310Z,101171.28
2022-11-24T14:44:56.738Z,101174.66
2022-11-24T14:47:31.333Z,101179.72
2022-11-24T14:50:07.770Z,101176.84
2022-11-24T14:52:35.034Z,101178.78
2022-11-24T14:55:21.453Z,101175.94
2022-11-24T14:57:47.765Z,101176.66
2022-11-24T15:00:25.123Z,101186.50
2022-11-24T15:02:55.892Z,101179.81
2022-11-24T15:05:25.129Z,101169.97
2022-11-24T15:08:03.116Z,101172.88
2022-11-24T15:10:35.689Z,101184.34
2022-11-24T15:13:06.283Z,101187.31
2022-11-24T15:15:36.519Z,101192.38
2022-11-24T15:18:05.062Z,101191.75
2022-11-24T15:20:32.000Z,101186.38
2022-11-24T15:23:24.994Z,101184.34
2022-11-24T15:26:18.301Z,101192.31
2022-11-24T15:28:47.386Z,101200.06
2022-11-24T15:31:14.569Z,101202.22
2022-11-24T15:33:42.114Z,101197.50
2022-11-24T15:36:08.502Z,101204.69
2022-11-24T15:38:34.938Z,101204.97
2022-11-24T15:41:01.769Z,101203.56
2022-11-24T15:43:36.918Z,101204.00
2022-11-24T15:46:05.138Z,101204.97
2022-11-24T15:48:31.783Z,101203.50
2022-11-24T15:50:59.563Z,101190.81
2022-11-24T15:53:40.920Z,101197.13
2022-11-24T15:56:12.318Z,101193.28
2022-11-24T15:58:38.819Z,101196.00
2022-11-24T16:01:05.314Z,101195.06
2022-11-24T16:03:47.010Z,101193.50
2022-11-24T16:06:22.214Z,101190.47
2022-11-24T16:08:50.877Z,101190.03
2022-11-24T16:11:17.447Z,101199.19
2022-11-24T16:13:48.557Z,101192.97
2022-11-24T16:16:18.272Z,101190.47
2022-11-24T16:18:45.342Z,101195.22
2022-11-24T16:21:11.778Z,101191.75
2022-11-24T16:23:38.289Z,101195.72
2022-11-24T16:26:05.322Z,101186.06
2022-11-24T16:28:32.013Z,101195.00
2022-11-24T16:30:58.386Z,101198.75
2022-11-24T16:33:24.870Z,101189.50
2022-11-24T16:35:51.269Z,101195.56
2022-11-24T16:38:18.713Z,101205.69
2022-11-24T16:40:45.161Z,101208.03
2022-11-24T16:43:11.549Z,101207.41
2022-11-24T16:45:42.192Z,101210.88
2022-11-24T16:48:11.431Z,101205.22
2022-11-24T16:50:38.202Z,101205.19
2022-11-24T16:53:04.588Z,101203.38
2022-11-24T16:55:30.910Z,101197.72
2022-11-24T16:57:57.239Z,101196.66
2022-11-24T17:00:23.578Z,101195.81
2022-11-24T17:02:49.982Z,101189.56
2022-11-24T17:05:16.577Z,101205.84
2022-11-24T17:07:43.054Z,101202.47
2022-11-24T17:10:09.734Z,101201.34
2022-11-24T17:12:36.663Z,101197.16
2022-11-24T17:15:31.179Z,101193.56
2022-11-24T17:18:22.427Z,101191.47
2022-11-24T17:20:36.809Z,101196.06
2022-11-24T17:23:03.249Z,101195.38
2022-11-24T17:25:29.619Z,101196.44
2022-11-24T17:27:56.903Z,101200.44
2022-11-24T17:30:23.214Z,101185.09
2022-11-24T17:32:55.155Z,101193.53
2022-11-24T17:35:23.035Z,101202.91
2022-11-24T17:37:49.414Z,101196.47
2022-11-24T17:40:34.320Z,101202.66
2022-11-24T17:43:01.235Z,101196.16
2022-11-24T17:45:29.218Z,101199.31
2022-11-24T17:47:56.895Z,101198.91
2022-11-24T17:50:26.056Z,101203.34
2022-11-24T17:52:53.706Z,101203.78
2022-11-24T17:55:20.060Z,101198.53
2022-11-24T17:57:46.429Z,101207.56
2022-11-24T18:00:13.550Z,101200.63
2022-11-24T18:02:40.118Z,101194.00
2022-11-24T18:05:06.859Z,101201.66
2022-11-24T18:07:35.889Z,101192.59
2022-11-24T18:10:02.242Z,101198.19
2022-11-24T18:12:28.614Z,101211.28
2022-11-24T18:14:55.084Z,101205.59
2022-11-24T18:17:21.463Z,101203.69
2022-11-24T18:19:47.849Z,101201.25
2022-11-24T18:22:14.212Z,101209.63
2022-11-24T18:24:40.739Z,101211.06
2022-11-24T18:27:07.268Z,101203.88
2022-11-24T18:29:33.620Z,101204.50
2022-11-24T18:32:00.235Z,101196.50
2022-11-24T18:34:26.697Z,101190.41
2022-11-24T18:36:53.235Z,101197.78
2022-11-24T18:39:19.656Z,101188.97
2022-11-24T18:41:46.661Z,101190.53
2022-11-24T18:44:13.032Z,101187.28
2022-11-24T18:46:39.432Z,101198.47
2022-11-24T18:49:06.881Z,101187.13
2022-11-24T18:51:33.420Z,101185.44
2022-11-24T18:54:00.070Z,101188.78
2022-11-24T18:56:27.067Z,101189.47
2022-11-24T18:58:55.060Z,101191.88
2022-11-24T19:01:24.500Z,101186.09
2022-11-24T19:03:53.370Z,101193.06
2022-11-24T19:06:22.334Z,101187.19
2022-11-24T19:08:48.983Z,101176.50
2022-11-24T19:11:23.546Z,101176.28
2022-11-24T19:13:50.743Z,101176.81
2022-11-24T19:16:19.324Z,101172.72
2022-11-24T19:18:50.407Z,101170.44
2022-11-24T19:21:19.745Z,101171.63
2022-11-24T19:23:46.289Z,101170.22
2022-11-24T19:26:12.587Z,101171.44
2022-11-24T19:28:38.967Z,101169.06
2022-11-24T19:31:07.905Z,101163.28
2022-11-24T19:33:35.010Z,101157.81
2022-11-24T19:36:03.286Z,101164.53
2022-11-24T19:38:31.374Z,101158.31
2022-11-24T19:41:09.224Z,101159.47
2022-11-24T19:43:35.684Z,101161.81
2022-11-24T19:46:06.642Z,101157.81
2022-11-24T19:48:33.597Z,101163.72
2022-11-24T19:51:05.593Z,101162.25
2022-11-24T19:53:32.593Z,101166.78
2022-11-24T19:56:05.346Z,101156.72
2022-11-24T19:58:32.002Z,101166.50
2022-11-24T20:01:07.565Z,101173.88
2022-11-24T20:03:34.625Z,101180.25
2022-11-24T20:06:01.091Z,101167.88
2022-11-24T20:08:31.521Z,101174.69
2022-11-24T20:11:09.705Z,101172.78
2022-11-24T20:13:38.462Z,101174.69
2022-11-24T20:16:32.429Z,101173.84
2022-11-24T20:19:01.805Z,101171.53
2022-11-24T20:21:31.128Z,101158.63
2022-11-24T20:24:03.792Z,101164.59
2022-11-24T20:26:33.570Z,101176.06
2022-11-24T20:29:01.144Z,101171.75
2022-11-24T20:31:31.161Z,101165.44
2022-11-24T20:33:58.838Z,101163.44
2022-11-24T20:36:27.716Z,101163.44
2022-11-24T20:38:55.189Z,101161.97
2022-11-24T20:41:24.197Z,101166.91
2022-11-24T20:43:52.071Z,101157.44
2022-11-24T20:46:21.996Z,101163.66
2022-11-24T20:48:48.734Z,101161.78
2022-11-24T20:51:21.415Z,101160.47
2022-11-24T20:53:48.810Z,101155.63
2022-11-24T20:56:21.018Z,101164.84
2022-11-24T20:58:47.785Z,101154.41
2022-11-24T21:01:20.650Z,101159.22
2022-11-24T21:03:52.930Z,101161.97
2022-11-24T21:06:19.253Z,101159.34
2022-11-24T21:08:45.577Z,101157.75
2022-11-24T21:11:13.892Z,101160.25
2022-11-24T21:13:44.267Z,101154.19
2022-11-24T21:16:22.954Z,101156.91
2022-11-24T21:18:51.386Z,101174.16
2022-11-24T21:21:19.579Z,101163.19
2022-11-24T21:23:47.089Z,101160.13
2022-11-24T21:26:16.857Z,101151.72
2022-11-24T21:28:45.035Z,101143.84
2022-11-24T21:31:19.569Z,101152.13
2022-11-24T21:33:48.039Z,101153.91
2022-11-24T21:36:17.651Z,101152.25
2022-11-24T21:38:48.831Z,101152.25
2022-11-24T21:41:15.174Z,101149.50
2022-11-24T21:43:41.544Z,101143.16
2022-11-24T21:46:10.626Z,101142.94
2022-11-24T21:48:38.919Z,101145.28
2022-11-24T21:51:07.552Z,101146.81
2022-11-24T21:53:36.054Z,101138.41
2022-11-24T21:56:07.509Z,101128.97
2022-11-24T21:58:34.239Z,101131.47
2022-11-24T22:01:04.966Z,101135.69
2022-11-24T22:03:31.468Z,101127.44
2022-11-24T22:05:59.697Z,101122.81
2022-11-24T22:08:27.469Z,101122.09
2022-11-24T22:10:59.496Z,101131.66
2022-11-24T22:13:25.789Z,101119.47
2022-11-24T22:16:06.263Z,101116.50
2022-11-24T22:18:34.954Z,101119.25
2022-11-24T22:21:04.987Z,101112.31
2022-11-24T22:23:32.553Z,101112.81
2022-11-24T22:26:03.765Z,101106.59
2022-11-24T22:28:32.080Z,101104.94
2022-11-24T22:30:58.570Z,101121.75
2022-11-24T22:33:24.957Z,101115.66
2022-11-24T22:35:58.654Z,101116.50
2022-11-24T22:38:25.769Z,101113.66
2022-11-24T22:40:52.501Z,101125.97
2022-11-24T22:43:22.930Z,101116.38
2022-11-24T22:45:49.601Z,101117.25
2022-11-24T22:48:16.020Z,101116.50
2022-11-24T22:50:42.368Z,101118.41
2022-11-24T22:53:08.693Z,101111.34
2022-11-24T22:55:35.720Z,101114.94
2022-11-24T22:58:02.111Z,101112.91
2022-11-24T23:00:28.481Z,101115.66
2022-11-24T23:02:54.945Z,101117.44
2022-11-24T23:05:21.399Z,101113.97
2022-11-24T23:07:47.864Z,101122.09
2022-11-24T23:10:14.215Z,101126.75
2022-11-24T23:12:40.539Z,101121.59
2022-11-24T23:15:07.474Z,101125.19
2022-11-24T23:17:33.824Z,101119.09
2022-11-24T23:20:00.198Z,101117.31
2022-11-24T23:22:26.614Z,101121.59
2022-11-24T23:24:52.971Z,101111.09
2022-11-24T23:27:19.290Z,101117.19
2022-11-24T23:29:45.584Z,101107.25
2022-11-24T23:32:11.897Z,101110.06
2022-11-24T23:34:38.199Z,101107.81
2022-11-24T23:37:04.579Z,101109.56
2022-11-24T23:39:30.935Z,101094.03
2022-11-24T23:41:57.301Z,101098.34
2022-11-24T23:44:23.685Z,101099.81
2022-11-24T23:46:50.081Z,101089.50
2022-11-24T23:49:16.496Z,101103.19
2022-11-24T23:51:42.873Z,101095.88
2022-11-24T23:54:09.643Z,101096.31
2022-11-24T23:56:36.696Z,101092.34
2022-11-24T23:59:04.495Z,101102.13
